createdAt,value
2018-05-11T00:00:31.864Z,936.88
2018-05-11T00:01:31.857Z,936.90
2018-05-11T00:02:31.859Z,936.88
2018-05-11T00:03:31.843Z,936.92
2018-05-11T00:04:31.837Z,936.96
2018-05-11T00:05:31.830Z,936.95
2018-05-11T00:06:31.826Z,936.97
2018-05-11T00:07:31.815Z,936.93
2018-05-11T00:08:31.808Z,936.95
2018-05-11T00:09:31.802Z,936.99
2018-05-11T00:10:31.794Z,936.97
2018-05-11T00:11:31.788Z,936.93
2018-05-11T00:12:31.779Z,936.90
2018-05-11T00:13:31.772Z,936.91
2018-05-11T00:14:31.765Z,936.91
2018-05-11T00:15:31.761Z,936.84
2018-05-11T00:16:31.750Z,936.84
2018-05-11T00:17:31.744Z,936.86
2018-05-11T00:18:31.736Z,936.87
2018-05-11T00:19:31.732Z,936.87
2018-05-11T00:20:31.823Z,936.90
2018-05-11T00:21:31.717Z,936.88
2018-05-11T00:22:31.707Z,936.94
2018-05-11T00:23:31.729Z,936.91
2018-05-11T00:24:31.693Z,936.87
2018-05-11T00:25:31.687Z,936.89
2018-05-11T00:26:31.677Z,936.86
2018-05-11T00:27:31.672Z,936.80
2018-05-11T00:28:31.665Z,936.78
2018-05-11T00:29:31.658Z,936.79
2018-05-11T00:30:31.651Z,936.81
2018-05-11T00:31:31.642Z,936.81
2018-05-11T00:32:31.636Z,936.80
2018-05-11T00:33:31.629Z,936.79
2018-05-11T00:34:31.621Z,936.82
2018-05-11T00:35:31.617Z,936.80
2018-05-11T00:36:31.607Z,936.80
2018-05-11T00:37:31.599Z,936.80
2018-05-11T00:38:31.592Z,936.84
2018-05-11T00:39:31.591Z,936.81
2018-05-11T00:40:31.580Z,936.80
2018-05-11T00:41:31.571Z,936.84
2018-05-11T00:42:31.564Z,936.82
2018-05-11T00:43:31.556Z,936.86
2018-05-11T00:44:31.550Z,936.84
2018-05-11T00:45:31.548Z,936.84
2018-05-11T00:46:31.532Z,936.83
2018-05-11T00:47:31.526Z,936.82
2018-05-11T00:48:31.520Z,936.80
2018-05-11T00:49:31.512Z,936.82
2018-05-11T00:50:31.506Z,936.80
2018-05-11T00:51:31.497Z,936.81
2018-05-11T00:52:31.490Z,936.84
2018-05-11T00:53:31.481Z,936.88
2018-05-11T00:54:31.475Z,936.90
2018-05-11T00:55:31.467Z,936.91
2018-05-11T00:56:31.483Z,936.99
2018-05-11T00:57:31.453Z,936.94
2018-05-11T00:58:31.448Z,936.95
2018-05-11T00:59:31.437Z,936.93
2018-05-11T01:00:31.429Z,936.95
2018-05-11T01:01:31.423Z,936.95
2018-05-11T01:02:31.417Z,936.92
2018-05-11T01:03:31.407Z,936.95
2018-05-11T01:04:31.400Z,936.96
2018-05-11T01:05:31.394Z,936.93
2018-05-11T01:06:31.386Z,936.96
2018-05-11T01:07:31.378Z,936.96
2018-05-11T01:08:31.371Z,936.94
2018-05-11T01:09:31.362Z,936.94
2018-05-11T01:10:31.356Z,936.97
2018-05-11T01:11:31.347Z,936.96
2018-05-11T01:12:31.341Z,936.98
2018-05-11T01:13:31.334Z,936.99
2018-05-11T01:14:31.427Z,937.00
2018-05-11T01:15:31.318Z,937.01
2018-05-11T01:16:31.311Z,937.02
2018-05-11T01:17:31.304Z,937.01
2018-05-11T01:18:31.296Z,937.03
2018-05-11T01:19:31.293Z,937.05
2018-05-11T01:20:31.382Z,937.05
2018-05-11T01:21:31.274Z,937.10
2018-05-11T01:22:31.266Z,937.12
2018-05-11T01:23:31.258Z,937.10
2018-05-11T01:24:31.254Z,937.12
2018-05-11T01:25:31.246Z,937.09
2018-05-11T01:26:31.336Z,937.03
2018-05-11T01:27:31.229Z,937.04
2018-05-11T01:28:31.223Z,937.02
2018-05-11T01:29:31.215Z,937.01
2018-05-11T01:30:31.206Z,936.98
2018-05-11T01:31:31.199Z,937.02
2018-05-11T01:32:31.192Z,937.00
2018-05-11T01:33:31.184Z,936.97
2018-05-11T01:34:31.177Z,936.97
2018-05-11T01:35:31.167Z,936.97
2018-05-11T01:36:31.162Z,936.95
2018-05-11T01:37:31.152Z,936.96
2018-05-11T01:38:31.146Z,936.98
2018-05-11T01:39:31.140Z,936.99
2018-05-11T01:40:31.131Z,936.95
2018-05-11T01:41:31.124Z,936.97
2018-05-11T01:42:31.115Z,937.03
2018-05-11T01:43:31.108Z,937.01
2018-05-11T01:44:31.100Z,936.98
2018-05-11T01:45:31.093Z,937.02
2018-05-11T01:46:31.086Z,936.99
2018-05-11T01:47:31.076Z,936.98
2018-05-11T01:48:31.070Z,937.01
2018-05-11T01:49:31.062Z,937.03
2018-05-11T01:50:31.154Z,937.01
2018-05-11T01:51:31.047Z,936.99
2018-05-11T01:52:31.039Z,936.96
2018-05-11T01:53:31.031Z,936.95
2018-05-11T01:54:31.024Z,936.92
2018-05-11T01:55:31.018Z,936.95
2018-05-11T01:56:31.111Z,936.97
2018-05-11T01:57:31.001Z,937.00
2018-05-11T01:58:30.999Z,937.01
2018-05-11T01:59:30.984Z,937.01
2018-05-11T02:00:30.977Z,936.99
2018-05-11T02:01:30.969Z,937.01
2018-05-11T02:02:30.962Z,936.96
2018-05-11T02:03:30.953Z,936.99
2018-05-11T02:04:30.947Z,937.00
2018-05-11T02:05:30.944Z,936.95
2018-05-11T02:06:30.934Z,936.95
2018-05-11T02:07:30.925Z,936.93
2018-05-11T02:08:30.916Z,936.94
2018-05-11T02:09:30.906Z,936.90
2018-05-11T02:10:30.899Z,936.92
2018-05-11T02:11:30.892Z,936.86
2018-05-11T02:12:30.883Z,936.85
2018-05-11T02:13:30.877Z,936.85
2018-05-11T02:14:30.868Z,936.82
2018-05-11T02:15:30.860Z,936.80
2018-05-11T02:16:30.855Z,936.84
2018-05-11T02:17:30.849Z,936.83
2018-05-11T02:18:30.923Z,936.85
2018-05-11T02:19:30.830Z,936.81
2018-05-11T02:20:30.823Z,936.83
2018-05-11T02:21:30.815Z,936.83
2018-05-11T02:22:30.804Z,936.82
2018-05-11T02:23:30.797Z,936.83
2018-05-11T02:24:30.790Z,936.83
2018-05-11T02:25:30.783Z,936.85
2018-05-11T02:26:30.774Z,936.84
2018-05-11T02:27:30.768Z,936.84
2018-05-11T02:28:30.759Z,936.83
2018-05-11T02:29:30.751Z,936.85
2018-05-11T02:30:30.746Z,936.84
2018-05-11T02:31:30.737Z,936.87
2018-05-11T02:32:30.828Z,936.87
2018-05-11T02:33:30.722Z,936.89
2018-05-11T02:34:30.712Z,936.86
2018-05-11T02:35:30.704Z,936.89
2018-05-11T02:36:30.697Z,936.88
2018-05-11T02:37:30.692Z,936.88
2018-05-11T02:38:30.681Z,936.88
2018-05-11T02:39:30.675Z,936.89
2018-05-11T02:40:30.671Z,936.87
2018-05-11T02:41:30.661Z,936.86
2018-05-11T02:42:30.651Z,936.88
2018-05-11T02:43:30.642Z,936.86
2018-05-11T02:44:30.636Z,936.89
2018-05-11T02:45:30.632Z,936.85
2018-05-11T02:46:30.690Z,936.84
2018-05-11T02:47:30.612Z,936.86
2018-05-11T02:48:30.604Z,936.86
2018-05-11T02:49:30.596Z,936.85
2018-05-11T02:50:30.770Z,936.83
2018-05-11T02:51:30.580Z,936.82
2018-05-11T02:52:30.573Z,936.82
2018-05-11T02:53:30.565Z,936.82
2018-05-11T02:54:30.556Z,936.80
2018-05-11T02:55:30.551Z,936.80
2018-05-11T02:56:30.540Z,936.78
2018-05-11T02:57:30.538Z,936.78
2018-05-11T02:58:30.526Z,936.78
2018-05-11T02:59:30.518Z,936.72
2018-05-11T03:00:30.511Z,936.75
2018-05-11T03:01:30.511Z,936.74
2018-05-11T03:02:30.493Z,936.70
2018-05-11T03:03:30.486Z,936.67
2018-05-11T03:04:30.477Z,936.70
2018-05-11T03:05:30.470Z,936.66
2018-05-11T03:06:30.462Z,936.69
2018-05-11T03:07:30.460Z,936.68
2018-05-11T03:08:30.546Z,936.65
2018-05-11T03:09:30.441Z,936.65
2018-05-11T03:10:30.444Z,936.64
2018-05-11T03:11:30.425Z,936.61
2018-05-11T03:12:30.416Z,936.60
2018-05-11T03:13:30.408Z,936.59
2018-05-11T03:14:30.399Z,936.58
2018-05-11T03:15:30.391Z,936.55
2018-05-11T03:16:30.385Z,936.55
2018-05-11T03:17:30.377Z,936.54
2018-05-11T03:18:30.391Z,936.56
2018-05-11T03:19:30.360Z,936.54
2018-05-11T03:20:30.451Z,936.48
2018-05-11T03:21:30.345Z,936.50
2018-05-11T03:22:30.336Z,936.45
2018-05-11T03:23:30.329Z,936.42
2018-05-11T03:24:30.322Z,936.39
2018-05-11T03:25:30.312Z,936.39
2018-05-11T03:26:30.303Z,936.36
2018-05-11T03:27:30.297Z,936.35
2018-05-11T03:28:30.288Z,936.33
2018-05-11T03:29:30.281Z,936.32
2018-05-11T03:30:30.273Z,936.34
2018-05-11T03:31:30.264Z,936.30
2018-05-11T03:32:30.356Z,936.33
2018-05-11T03:33:30.248Z,936.31
2018-05-11T03:34:30.239Z,936.29
2018-05-11T03:35:30.242Z,936.29
2018-05-11T03:36:30.224Z,936.27
2018-05-11T03:37:30.216Z,936.26
2018-05-11T03:38:30.206Z,936.28
2018-05-11T03:39:30.199Z,936.26
2018-05-11T03:40:30.190Z,936.25
2018-05-11T03:41:30.191Z,936.28
2018-05-11T03:42:30.174Z,936.28
2018-05-11T03:43:30.170Z,936.29
2018-05-11T03:44:30.159Z,936.27
2018-05-11T03:45:30.149Z,936.29
2018-05-11T03:46:30.143Z,936.29
2018-05-11T03:47:30.133Z,936.31
2018-05-11T03:48:30.126Z,936.34
2018-05-11T03:49:30.118Z,936.35
2018-05-11T03:50:30.259Z,936.33
2018-05-11T03:51:30.100Z,936.32
2018-05-11T03:52:30.093Z,936.34
2018-05-11T03:53:30.088Z,936.29
2018-05-11T03:54:30.079Z,936.30
2018-05-11T03:55:30.066Z,936.24
2018-05-11T03:56:30.159Z,936.23
2018-05-11T03:57:30.052Z,936.19
2018-05-11T03:58:30.044Z,936.22
2018-05-11T03:59:30.036Z,936.15
2018-05-11T04:00:30.026Z,936.16
2018-05-11T04:01:30.054Z,936.12
2018-05-11T04:02:30.143Z,936.14
2018-05-11T04:03:30.035Z,936.15
2018-05-11T04:04:30.027Z,936.15
2018-05-11T04:05:30.019Z,936.13
2018-05-11T04:06:30.010Z,936.13
2018-05-11T04:07:30.001Z,936.09
2018-05-11T04:08:29.994Z,936.10
2018-05-11T04:09:29.987Z,936.09
2018-05-11T04:10:29.978Z,936.11
2018-05-11T04:11:29.969Z,936.12
2018-05-11T04:12:29.961Z,936.08
2018-05-11T04:13:29.952Z,936.08
2018-05-11T04:14:29.944Z,936.07
2018-05-11T04:15:29.935Z,936.09
2018-05-11T04:16:29.928Z,936.05
2018-05-11T04:17:29.929Z,936.03
2018-05-11T04:18:29.910Z,936.06
2018-05-11T04:19:29.902Z,936.01
2018-05-11T04:20:29.994Z,936.04
2018-05-11T04:21:29.886Z,936.03
2018-05-11T04:22:29.876Z,936.00
2018-05-11T04:23:29.868Z,936.02
2018-05-11T04:24:29.862Z,936.00
2018-05-11T04:25:29.859Z,935.96
2018-05-11T04:26:29.844Z,935.93
2018-05-11T04:27:29.835Z,935.90
2018-05-11T04:28:29.827Z,935.85
2018-05-11T04:29:29.819Z,935.80
2018-05-11T04:30:29.809Z,935.81
2018-05-11T04:31:29.803Z,935.76
2018-05-11T04:32:29.894Z,935.77
2018-05-11T04:33:29.787Z,935.81
2018-05-11T04:34:29.777Z,935.81
2018-05-11T04:35:29.771Z,935.84
2018-05-11T04:36:29.760Z,935.86
2018-05-11T04:37:29.754Z,935.87
2018-05-11T04:38:29.747Z,935.92
2018-05-11T04:39:29.734Z,935.90
2018-05-11T04:40:29.730Z,935.91
2018-05-11T04:41:29.718Z,935.86
2018-05-11T04:42:29.710Z,935.91
2018-05-11T04:43:29.703Z,935.91
2018-05-11T04:44:29.692Z,935.91
2018-05-11T04:45:29.684Z,935.88
2018-05-11T04:46:29.676Z,935.90
2018-05-11T04:47:29.667Z,935.88
2018-05-11T04:48:29.659Z,935.90
2018-05-11T04:49:29.652Z,935.90
2018-05-11T04:50:29.643Z,935.92
2018-05-11T04:51:29.633Z,935.87
2018-05-11T04:52:29.625Z,935.90
2018-05-11T04:53:29.617Z,935.89
2018-05-11T04:54:29.607Z,935.89
2018-05-11T04:55:29.599Z,935.87
2018-05-11T04:56:29.691Z,935.88
2018-05-11T04:57:29.582Z,935.89
2018-05-11T04:58:29.573Z,935.88
2018-05-11T04:59:29.565Z,935.86
2018-05-11T05:00:29.557Z,935.84
2018-05-11T05:01:29.549Z,935.79
2018-05-11T05:02:29.639Z,935.82
2018-05-11T05:03:29.530Z,935.77
2018-05-11T05:04:29.524Z,935.80
2018-05-11T05:05:29.517Z,935.78
2018-05-11T05:06:29.506Z,935.75
2018-05-11T05:07:29.499Z,935.68
2018-05-11T05:08:29.488Z,935.68
2018-05-11T05:09:29.480Z,935.71
2018-05-11T05:10:29.470Z,935.66
2018-05-11T05:11:29.461Z,935.69
2018-05-11T05:12:29.468Z,935.72
2018-05-11T05:13:29.445Z,935.71
2018-05-11T05:14:29.436Z,935.67
2018-05-11T05:15:29.431Z,935.64
2018-05-11T05:16:29.422Z,935.68
2018-05-11T05:17:29.411Z,935.59
2018-05-11T05:18:29.406Z,935.58
2018-05-11T05:19:29.393Z,935.62
2018-05-11T05:20:29.383Z,935.61
2018-05-11T05:21:29.376Z,935.56
2018-05-11T05:22:29.366Z,935.59
2018-05-11T05:23:29.357Z,935.57
2018-05-11T05:24:29.349Z,935.59
2018-05-11T05:25:29.341Z,935.61
2018-05-11T05:26:29.531Z,935.59
2018-05-11T05:27:29.322Z,935.55
2018-05-11T05:28:29.314Z,935.50
2018-05-11T05:29:29.305Z,935.51
2018-05-11T05:30:29.296Z,935.53
2018-05-11T05:31:29.288Z,935.50
2018-05-11T05:32:29.479Z,935.46
2018-05-11T05:33:29.271Z,935.45
2018-05-11T05:34:29.261Z,935.48
2018-05-11T05:35:29.253Z,935.48
2018-05-11T05:36:29.243Z,935.51
2018-05-11T05:37:29.235Z,935.49
2018-05-11T05:38:29.326Z,935.46
2018-05-11T05:39:29.217Z,935.49
2018-05-11T05:40:29.210Z,935.45
2018-05-11T05:41:29.200Z,935.44
2018-05-11T05:42:29.191Z,935.43
2018-05-11T05:43:29.182Z,935.41
2018-05-11T05:44:29.174Z,935.42
2018-05-11T05:45:29.164Z,935.42
2018-05-11T05:46:29.156Z,935.42
2018-05-11T05:47:29.147Z,935.40
2018-05-11T05:48:29.138Z,935.36
2018-05-11T05:49:29.130Z,935.40
2018-05-11T05:50:29.120Z,935.37
2018-05-11T05:51:29.111Z,935.34
2018-05-11T05:52:29.104Z,935.29
2018-05-11T05:53:29.094Z,935.28
2018-05-11T05:54:29.084Z,935.28
2018-05-11T05:55:29.076Z,935.31
2018-05-11T05:56:29.269Z,935.28
2018-05-11T05:57:29.059Z,935.28
2018-05-11T05:58:29.148Z,935.30
2018-05-11T05:59:29.039Z,935.30
2018-05-11T06:00:29.031Z,935.33
2018-05-11T06:01:29.024Z,935.36
2018-05-11T06:02:29.103Z,935.34
2018-05-11T06:03:29.004Z,935.33
2018-05-11T06:04:28.996Z,935.34
2018-05-11T06:05:28.987Z,935.32
2018-05-11T06:06:28.977Z,935.30
2018-05-11T06:07:28.968Z,935.31
2018-05-11T06:08:29.159Z,935.25
2018-05-11T06:09:28.950Z,935.25
2018-05-11T06:10:28.941Z,935.28
2018-05-11T06:11:28.932Z,935.26
2018-05-11T06:12:28.925Z,935.23
2018-05-11T06:13:28.915Z,935.27
2018-05-11T06:14:29.005Z,935.26
2018-05-11T06:15:28.897Z,935.24
2018-05-11T06:16:28.889Z,935.23
2018-05-11T06:17:28.882Z,935.28
2018-05-11T06:18:28.869Z,935.22
2018-05-11T06:19:28.860Z,935.21
2018-05-11T06:20:29.052Z,935.20
2018-05-11T06:21:28.843Z,935.21
2018-05-11T06:22:28.833Z,935.21
2018-05-11T06:23:28.824Z,935.17
2018-05-11T06:24:28.816Z,935.16
2018-05-11T06:25:28.809Z,935.11
2018-05-11T06:26:28.898Z,935.09
2018-05-11T06:27:28.789Z,935.09
2018-05-11T06:28:28.781Z,935.10
2018-05-11T06:29:28.771Z,935.10
2018-05-11T06:30:28.761Z,935.09
2018-05-11T06:31:28.752Z,935.08
2018-05-11T06:32:28.744Z,935.09
2018-05-11T06:33:28.735Z,935.09
2018-05-11T06:34:28.745Z,935.08
2018-05-11T06:35:28.719Z,935.04
2018-05-11T06:36:28.709Z,935.02
2018-05-11T06:37:28.698Z,935.05
2018-05-11T06:38:28.789Z,935.04
2018-05-11T06:39:28.680Z,935.02
2018-05-11T06:40:28.683Z,935.02
2018-05-11T06:41:28.663Z,934.99
2018-05-11T06:42:28.653Z,935.00
2018-05-11T06:43:28.644Z,935.00
2018-05-11T06:44:28.636Z,935.03
2018-05-11T06:45:28.626Z,935.01
2018-05-11T06:46:28.616Z,935.02
2018-05-11T06:47:28.607Z,935.01
2018-05-11T06:48:28.599Z,934.97
2018-05-11T06:49:28.590Z,935.01
2018-05-11T06:50:28.780Z,935.01
2018-05-11T06:51:28.571Z,935.02
2018-05-11T06:52:28.562Z,935.09
2018-05-11T06:53:28.554Z,935.09
2018-05-11T06:54:28.544Z,935.10
2018-05-11T06:55:28.535Z,935.09
2018-05-11T06:56:28.526Z,935.09
2018-05-11T06:57:28.518Z,935.08
2018-05-11T06:58:28.508Z,935.09
2018-05-11T06:59:28.499Z,935.12
2018-05-11T07:00:28.489Z,935.10
2018-05-11T07:01:28.531Z,935.14
2018-05-11T07:02:28.572Z,935.09
2018-05-11T07:03:28.462Z,935.13
2018-05-11T07:04:28.455Z,935.10
2018-05-11T07:05:28.445Z,935.10
2018-05-11T07:06:28.434Z,935.11
2018-05-11T07:07:28.425Z,935.12
2018-05-11T07:08:28.517Z,935.12
2018-05-11T07:09:28.408Z,935.13
2018-05-11T07:10:28.397Z,935.10
2018-05-11T07:11:28.389Z,935.10
2018-05-11T07:12:28.345Z,935.09
2018-05-11T07:13:28.336Z,935.06
2018-05-11T07:14:28.329Z,935.10
2018-05-11T07:15:28.318Z,935.11
2018-05-11T07:16:28.309Z,935.14
2018-05-11T07:17:28.299Z,935.09
2018-05-11T07:18:28.288Z,935.08
2018-05-11T07:19:28.340Z,935.09
2018-05-11T07:20:28.272Z,935.09
2018-05-11T07:21:28.262Z,935.11
2018-05-11T07:22:28.252Z,935.10
2018-05-11T07:23:28.243Z,935.12
2018-05-11T07:24:28.233Z,935.13
2018-05-11T07:25:28.225Z,935.12
2018-05-11T07:26:28.364Z,935.13
2018-05-11T07:27:28.208Z,935.11
2018-05-11T07:28:28.202Z,935.15
2018-05-11T07:29:28.187Z,935.13
2018-05-11T07:30:28.178Z,935.13
2018-05-11T07:31:28.169Z,935.10
2018-05-11T07:32:28.361Z,935.09
2018-05-11T07:33:28.151Z,935.08
2018-05-11T07:34:28.143Z,935.09
2018-05-11T07:35:28.132Z,935.10
2018-05-11T07:36:28.127Z,935.12
2018-05-11T07:37:28.114Z,935.08
2018-05-11T07:38:28.203Z,935.08
2018-05-11T07:39:28.097Z,935.06
2018-05-11T07:40:28.089Z,935.03
2018-05-11T07:41:28.076Z,935.02
2018-05-11T07:42:28.065Z,935.03
2018-05-11T07:43:28.106Z,935.05
2018-05-11T07:44:28.049Z,935.05
2018-05-11T07:45:28.037Z,935.04
2018-05-11T07:46:28.027Z,935.08
2018-05-11T07:47:28.019Z,935.11
2018-05-11T07:48:28.010Z,935.14
2018-05-11T07:49:27.999Z,935.13
2018-05-11T07:50:28.141Z,935.13
2018-05-11T07:51:27.989Z,935.14
2018-05-11T07:52:27.973Z,935.14
2018-05-11T07:53:27.965Z,935.15
2018-05-11T07:54:27.952Z,935.14
2018-05-11T07:55:27.942Z,935.16
2018-05-11T07:56:27.935Z,935.19
2018-05-11T07:57:27.925Z,935.18
2018-05-11T07:58:27.914Z,935.17
2018-05-11T07:59:27.907Z,935.15
2018-05-11T08:00:27.898Z,935.12
2018-05-11T08:01:27.888Z,935.12
2018-05-11T08:02:27.879Z,935.13
2018-05-11T08:03:27.869Z,935.11
2018-05-11T08:04:27.860Z,935.10
2018-05-11T08:05:27.850Z,935.10
2018-05-11T08:06:27.840Z,935.08
2018-05-11T08:07:27.831Z,935.09
2018-05-11T08:08:27.923Z,935.08
2018-05-11T08:09:27.812Z,935.08
2018-05-11T08:10:27.804Z,935.05
2018-05-11T08:11:27.794Z,935.04
2018-05-11T08:12:27.785Z,935.01
2018-05-11T08:13:27.777Z,935.04
2018-05-11T08:14:27.991Z,935.06
2018-05-11T08:15:27.760Z,935.09
2018-05-11T08:16:27.747Z,935.09
2018-05-11T08:17:27.741Z,935.09
2018-05-11T08:18:27.728Z,935.07
2018-05-11T08:19:27.720Z,935.11
2018-05-11T08:20:27.860Z,935.09
2018-05-11T08:21:27.775Z,935.12
2018-05-11T08:22:27.690Z,935.20
2018-05-11T08:23:27.683Z,935.16
2018-05-11T08:24:27.672Z,935.23
2018-05-11T08:25:27.664Z,935.21
2018-05-11T08:26:27.654Z,935.25
2018-05-11T08:27:27.643Z,935.29
2018-05-11T08:28:27.636Z,935.30
2018-05-11T08:29:27.626Z,935.33
2018-05-11T08:30:27.615Z,935.36
2018-05-11T08:31:27.607Z,935.36
2018-05-11T08:32:27.747Z,935.36
2018-05-11T08:33:27.590Z,935.39
2018-05-11T08:34:27.578Z,935.37
2018-05-11T08:35:27.569Z,935.37
2018-05-11T08:36:27.559Z,935.38
2018-05-11T08:37:27.551Z,935.37
2018-05-11T08:38:27.643Z,935.35
2018-05-11T08:39:27.533Z,935.34
2018-05-11T08:40:27.526Z,935.37
2018-05-11T08:41:27.513Z,935.41
2018-05-11T08:42:27.503Z,935.40
2018-05-11T08:43:27.495Z,935.40
2018-05-11T08:44:27.487Z,935.40
2018-05-11T08:45:27.475Z,935.38
2018-05-11T08:46:27.529Z,935.41
2018-05-11T08:47:27.458Z,935.40
2018-05-11T08:48:27.446Z,935.41
2018-05-11T08:49:27.437Z,935.39
2018-05-11T08:50:27.528Z,935.39
2018-05-11T08:51:27.422Z,935.42
2018-05-11T08:52:27.421Z,935.43
2018-05-11T08:53:27.400Z,935.43
2018-05-11T08:54:27.390Z,935.42
2018-05-11T08:55:27.381Z,935.46
2018-05-11T08:56:27.471Z,935.46
2018-05-11T08:57:27.363Z,935.49
2018-05-11T08:58:27.353Z,935.47
2018-05-11T08:59:27.343Z,935.49
2018-05-11T09:00:27.334Z,935.51
2018-05-11T09:01:27.325Z,935.53
2018-05-11T09:02:27.422Z,935.54
2018-05-11T09:03:27.306Z,935.55
2018-05-11T09:04:27.296Z,935.56
2018-05-11T09:05:27.287Z,935.53
2018-05-11T09:06:27.277Z,935.60
2018-05-11T09:07:27.268Z,935.59
2018-05-11T09:08:27.359Z,935.60
2018-05-11T09:09:27.251Z,935.62
2018-05-11T09:10:27.238Z,935.65
2018-05-11T09:11:27.231Z,935.63
2018-05-11T09:12:27.220Z,935.63
2018-05-11T09:13:27.211Z,935.67
2018-05-11T09:14:27.204Z,935.64
2018-05-11T09:15:27.193Z,935.66
2018-05-11T09:16:27.183Z,935.71
2018-05-11T09:17:27.174Z,935.70
2018-05-11T09:18:27.164Z,935.74
2018-05-11T09:19:27.155Z,935.73
2018-05-11T09:20:27.145Z,935.74
2018-05-11T09:21:27.193Z,935.73
2018-05-11T09:22:27.127Z,935.73
2018-05-11T09:23:27.120Z,935.75
2018-05-11T09:24:27.108Z,935.77
2018-05-11T09:25:27.099Z,935.76
2018-05-11T09:26:27.090Z,935.78
2018-05-11T09:27:27.078Z,935.81
2018-05-11T09:28:27.074Z,935.81
2018-05-11T09:29:27.060Z,935.85
2018-05-11T09:30:27.049Z,935.83
2018-05-11T09:31:27.043Z,935.85
2018-05-11T09:32:27.133Z,935.89
2018-05-11T09:33:27.024Z,935.89
2018-05-11T09:34:27.012Z,935.93
2018-05-11T09:35:27.004Z,935.92
2018-05-11T09:36:26.995Z,935.95
2018-05-11T09:37:26.985Z,935.97
2018-05-11T09:38:26.976Z,935.93
2018-05-11T09:39:26.982Z,935.95
2018-05-11T09:40:26.957Z,935.95
2018-05-11T09:41:26.949Z,936.01
2018-05-11T09:42:26.937Z,935.98
2018-05-11T09:43:26.928Z,935.99
2018-05-11T09:44:26.921Z,936.04
2018-05-11T09:45:26.910Z,936.02
2018-05-11T09:46:26.900Z,936.04
2018-05-11T09:47:26.890Z,936.03
2018-05-11T09:48:26.883Z,936.04
2018-05-11T09:49:26.954Z,936.07
2018-05-11T09:50:27.012Z,936.11
2018-05-11T09:51:26.853Z,936.07
2018-05-11T09:52:26.845Z,936.08
2018-05-11T09:53:26.836Z,936.13
2018-05-11T09:54:26.824Z,936.15
2018-05-11T09:55:26.820Z,936.17
2018-05-11T09:56:26.907Z,936.16
2018-05-11T09:57:26.798Z,936.18
2018-05-11T09:58:26.788Z,936.19
2018-05-11T09:59:26.778Z,936.19
2018-05-11T10:00:26.768Z,936.21
2018-05-11T10:01:26.760Z,936.19
2018-05-11T10:02:26.850Z,936.23
2018-05-11T10:03:26.745Z,936.25
2018-05-11T10:04:26.740Z,936.26
2018-05-11T10:05:26.721Z,936.32
2018-05-11T10:06:26.713Z,936.31
2018-05-11T10:07:26.703Z,936.34
2018-05-11T10:08:26.807Z,936.35
2018-05-11T10:09:26.684Z,936.35
2018-05-11T10:10:26.674Z,936.33
2018-05-11T10:11:26.760Z,936.32
2018-05-11T10:12:26.656Z,936.35
2018-05-11T10:13:26.646Z,936.32
2018-05-11T10:14:26.635Z,936.34
2018-05-11T10:15:26.627Z,936.36
2018-05-11T10:16:26.618Z,936.34
2018-05-11T10:17:26.608Z,936.36
2018-05-11T10:18:26.602Z,936.36
2018-05-11T10:19:26.590Z,936.38
2018-05-11T10:20:26.680Z,936.38
2018-05-11T10:21:26.570Z,936.34
2018-05-11T10:22:26.561Z,936.40
2018-05-11T10:23:26.553Z,936.37
2018-05-11T10:24:26.547Z,936.36
2018-05-11T10:25:26.534Z,936.33
2018-05-11T10:26:26.630Z,936.32
2018-05-11T10:27:26.519Z,936.35
2018-05-11T10:28:26.506Z,936.37
2018-05-11T10:29:26.495Z,936.37
2018-05-11T10:30:26.486Z,936.36
2018-05-11T10:31:26.477Z,936.40
2018-05-11T10:32:26.571Z,936.39
2018-05-11T10:33:26.459Z,936.39
2018-05-11T10:34:26.469Z,936.43
2018-05-11T10:35:26.440Z,936.50
2018-05-11T10:36:26.434Z,936.52
2018-05-11T10:37:26.421Z,936.53
2018-05-11T10:38:26.410Z,936.56
2018-05-11T10:39:26.402Z,936.51
2018-05-11T10:40:26.394Z,936.54
2018-05-11T10:41:26.387Z,936.50
2018-05-11T10:42:26.376Z,936.51
2018-05-11T10:43:26.367Z,936.49
2018-05-11T10:44:26.357Z,936.50
2018-05-11T10:45:26.347Z,936.49
2018-05-11T10:46:26.338Z,936.47
2018-05-11T10:47:26.329Z,936.47
2018-05-11T10:48:26.379Z,936.45
2018-05-11T10:49:26.311Z,936.46
2018-05-11T10:50:26.500Z,936.49
2018-05-11T10:51:26.293Z,936.52
2018-05-11T10:52:26.284Z,936.53
2018-05-11T10:53:26.276Z,936.53
2018-05-11T10:54:26.268Z,936.53
2018-05-11T10:55:26.256Z,936.56
2018-05-11T10:56:26.349Z,936.58
2018-05-11T10:57:26.239Z,936.57
2018-05-11T10:58:26.231Z,936.63
2018-05-11T10:59:26.220Z,936.62
2018-05-11T11:00:26.211Z,936.63
2018-05-11T11:01:26.202Z,936.69
2018-05-11T11:02:26.264Z,936.65
2018-05-11T11:03:26.182Z,936.69
2018-05-11T11:04:26.173Z,936.71
2018-05-11T11:05:26.165Z,936.70
2018-05-11T11:06:26.157Z,936.70
2018-05-11T11:07:26.146Z,936.73
2018-05-11T11:08:26.238Z,936.72
2018-05-11T11:09:26.129Z,936.73
2018-05-11T11:10:26.120Z,936.77
2018-05-11T11:11:26.111Z,936.80
2018-05-11T11:12:26.103Z,936.81
2018-05-11T11:13:26.123Z,936.81
2018-05-11T11:14:26.084Z,936.80
2018-05-11T11:15:26.075Z,936.83
2018-05-11T11:16:26.066Z,936.85
2018-05-11T11:17:26.057Z,936.83
2018-05-11T11:18:26.048Z,936.84
2018-05-11T11:19:26.040Z,936.83
2018-05-11T11:20:26.179Z,936.80
2018-05-11T11:21:26.020Z,936.82
2018-05-11T11:22:26.011Z,936.83
2018-05-11T11:23:26.014Z,936.82
2018-05-11T11:24:25.995Z,936.83
2018-05-11T11:25:25.986Z,936.86
2018-05-11T11:26:26.076Z,936.84
2018-05-11T11:27:25.968Z,936.87
2018-05-11T11:28:25.959Z,936.85
2018-05-11T11:29:25.956Z,936.86
2018-05-11T11:30:25.940Z,936.81
2018-05-11T11:31:25.932Z,936.88
2018-05-11T11:32:25.924Z,936.85
2018-05-11T11:33:25.916Z,936.87
2018-05-11T11:34:25.993Z,936.85
2018-05-11T11:35:25.899Z,936.87
2018-05-11T11:36:25.890Z,936.87
2018-05-11T11:37:25.886Z,936.89
2018-05-11T11:38:25.881Z,936.85
2018-05-11T11:39:25.865Z,936.91
2018-05-11T11:40:25.857Z,936.88
2018-05-11T11:41:25.851Z,936.94
2018-05-11T11:42:25.841Z,936.92
2018-05-11T11:43:25.835Z,936.91
2018-05-11T11:44:25.828Z,936.95
2018-05-11T11:45:25.821Z,936.97
2018-05-11T11:46:25.812Z,936.97
2018-05-11T11:47:25.821Z,936.96
2018-05-11T11:48:25.797Z,936.96
2018-05-11T11:49:25.791Z,936.95
2018-05-11T11:50:25.783Z,936.95
2018-05-11T11:51:25.776Z,936.97
2018-05-11T11:52:25.768Z,936.93
2018-05-11T11:53:25.762Z,936.97
2018-05-11T11:54:25.753Z,936.96
2018-05-11T11:55:25.752Z,936.97
2018-05-11T11:56:25.812Z,936.94
2018-05-11T11:57:25.735Z,936.98
2018-05-11T11:58:25.730Z,937.00
2018-05-11T11:59:25.722Z,936.99
2018-05-11T12:00:25.714Z,936.96
2018-05-11T12:01:25.708Z,936.98
2018-05-11T12:02:25.700Z,936.99
2018-05-11T12:03:25.694Z,936.95
2018-05-11T12:04:25.709Z,936.94
2018-05-11T12:05:25.683Z,936.91
2018-05-11T12:06:25.677Z,936.89
2018-05-11T12:07:25.669Z,936.91
2018-05-11T12:08:25.663Z,936.94
2018-05-11T12:09:25.662Z,936.89
2018-05-11T12:10:25.652Z,936.91
2018-05-11T12:11:25.650Z,936.93
2018-05-11T12:12:25.641Z,936.88
2018-05-11T12:13:25.634Z,936.90
2018-05-11T12:14:25.628Z,936.90
2018-05-11T12:15:25.622Z,936.93
2018-05-11T12:16:25.618Z,936.88
2018-05-11T12:17:25.612Z,936.90
2018-05-11T12:18:25.606Z,936.94
2018-05-11T12:19:25.750Z,936.93
2018-05-11T12:20:25.595Z,936.93
2018-05-11T12:21:25.590Z,936.94
2018-05-11T12:22:25.583Z,936.94
2018-05-11T12:23:25.579Z,936.94
2018-05-11T12:24:25.573Z,936.97
2018-05-11T12:25:25.568Z,936.97
2018-05-11T12:26:25.591Z,936.98
2018-05-11T12:27:25.557Z,936.96
2018-05-11T12:28:25.552Z,936.96